sensor_id;sensor_type;location;lat;lon;timestamp;temperature;humidity
1546;DHT22;766;51.502;9.752;2023-06-26T00:00:22;21.60;99.90
1546;DHT22;766;51.502;9.752;2023-06-26T00:02:51;21.60;99.90
1546;DHT22;766;51.502;9.752;2023-06-26T00:05:23;21.50;99.90
1546;DHT22;766;51.502;9.752;2023-06-26T00:07:51;21.50;99.90
1546;DHT22;766;51.502;9.752;2023-06-26T00:10:19;21.50;99.90
1546;DHT22;766;51.502;9.752;2023-06-26T00:12:49;21.50;99.90
1546;DHT22;766;51.502;9.752;2023-06-26T00:15:17;21.60;99.90
1546;DHT22;766;51.502;9.752;2023-06-26T00:17:46;21.60;99.90
1546;DHT22;766;51.502;9.752;2023-06-26T00:20:14;21.60;99.90
1546;DHT22;766;51.502;9.752;2023-06-26T00:22:45;21.50;99.90
1546;DHT22;766;51.502;9.752;2023-06-26T00:25:14;21.50;99.90
1546;DHT22;766;51.502;9.752;2023-06-26T00:27:42;21.50;99.90
1546;DHT22;766;51.502;9.752;2023-06-26T00:30:12;21.40;99.90
1546;DHT22;766;51.502;9.752;2023-06-26T00:32:41;21.40;99.90
1546;DHT22;766;51.502;9.752;2023-06-26T00:35:09;21.40;99.90
1546;DHT22;766;51.502;9.752;2023-06-26T00:37:37;21.40;99.90
1546;DHT22;766;51.502;9.752;2023-06-26T00:40:07;21.40;99.90
1546;DHT22;766;51.502;9.752;2023-06-26T00:42:36;21.30;99.90
1546;DHT22;766;51.502;9.752;2023-06-26T00:45:05;21.30;99.90
1546;DHT22;766;51.502;9.752;2023-06-26T00:47:36;21.30;99.90
1546;DHT22;766;51.502;9.752;2023-06-26T00:50:07;21.30;99.90
1546;DHT22;766;51.502;9.752;2023-06-26T00:52:41;21.40;99.90
1546;DHT22;766;51.502;9.752;2023-06-26T00:55:13;21.40;99.90
1546;DHT22;766;51.502;9.752;2023-06-26T00:57:45;21.30;99.90
1546;DHT22;766;51.502;9.752;2023-06-26T01:00:21;21.30;99.90
1546;DHT22;766;51.502;9.752;2023-06-26T01:03:09;21.20;99.90
1546;DHT22;766;51.502;9.752;2023-06-26T01:05:43;21.20;99.90
1546;DHT22;766;51.502;9.752;2023-06-26T01:08:14;20.80;99.90
1546;DHT22;766;51.502;9.752;2023-06-26T01:10:43;20.60;99.90
1546;DHT22;766;51.502;9.752;2023-06-26T01:13:12;20.70;99.90
1546;DHT22;766;51.502;9.752;2023-06-26T01:15:41;20.60;99.90
1546;DHT22;766;51.502;9.752;2023-06-26T01:18:11;20.60;99.90
1546;DHT22;766;51.502;9.752;2023-06-26T01:20:43;20.60;99.90
1546;DHT22;766;51.502;9.752;2023-06-26T01:23:15;20.50;99.90
1546;DHT22;766;51.502;9.752;2023-06-26T01:25:56;20.50;99.90
1546;DHT22;766;51.502;9.752;2023-06-26T01:28:29;20.40;99.90
1546;DHT22;766;51.502;9.752;2023-06-26T01:30:58;20.30;99.90
1546;DHT22;766;51.502;9.752;2023-06-26T01:33:27;20.20;99.90
1546;DHT22;766;51.502;9.752;2023-06-26T01:35:56;20.20;99.90
1546;DHT22;766;51.502;9.752;2023-06-26T01:38:24;19.90;99.90
1546;DHT22;766;51.502;9.752;2023-06-26T01:40:53;19.90;99.90
1546;DHT22;766;51.502;9.752;2023-06-26T01:43:26;19.90;99.90
1546;DHT22;766;51.502;9.752;2023-06-26T01:46:01;19.70;99.90
1546;DHT22;766;51.502;9.752;2023-06-26T01:48:34;19.50;99.90
1546;DHT22;766;51.502;9.752;2023-06-26T01:51:06;19.30;99.90
1546;DHT22;766;51.502;9.752;2023-06-26T01:53:38;19.00;99.90
1546;DHT22;766;51.502;9.752;2023-06-26T01:56:13;19.00;99.90
1546;DHT22;766;51.502;9.752;2023-06-26T01:58:46;18.90;99.90
1546;DHT22;766;51.502;9.752;2023-06-26T02:01:17;18.80;99.90
1546;DHT22;766;51.502;9.752;2023-06-26T02:03:45;19.00;99.90
1546;DHT22;766;51.502;9.752;2023-06-26T02:06:14;19.00;99.90
1546;DHT22;766;51.502;9.752;2023-06-26T02:08:43;19.00;99.90
1546;DHT22;766;51.502;9.752;2023-06-26T02:11:11;19.10;99.90
1546;DHT22;766;51.502;9.752;2023-06-26T02:13:40;19.10;99.90
1546;DHT22;766;51.502;9.752;2023-06-26T02:16:09;19.10;99.90
1546;DHT22;766;51.502;9.752;2023-06-26T02:18:38;19.00;99.90
1546;DHT22;766;51.502;9.752;2023-06-26T02:21:07;19.00;99.90
1546;DHT22;766;51.502;9.752;2023-06-26T02:23:35;18.70;99.90
1546;DHT22;766;51.502;9.752;2023-06-26T02:26:05;18.50;99.90
1546;DHT22;766;51.502;9.752;2023-06-26T02:28:33;18.60;99.90
1546;DHT22;766;51.502;9.752;2023-06-26T02:31:02;18.70;99.90
1546;DHT22;766;51.502;9.752;2023-06-26T02:33:30;18.60;99.90
1546;DHT22;766;51.502;9.752;2023-06-26T02:36:00;18.50;99.90
1546;DHT22;766;51.502;9.752;2023-06-26T02:38:29;18.50;99.90
1546;DHT22;766;51.502;9.752;2023-06-26T02:40:58;18.50;99.90
1546;DHT22;766;51.502;9.752;2023-06-26T02:43:26;18.40;99.90
1546;DHT22;766;51.502;9.752;2023-06-26T02:45:55;18.40;99.90
1546;DHT22;766;51.502;9.752;2023-06-26T02:48:23;18.50;99.90
1546;DHT22;766;51.502;9.752;2023-06-26T02:50:52;18.50;99.90
1546;DHT22;766;51.502;9.752;2023-06-26T02:53:22;18.40;99.90
1546;DHT22;766;51.502;9.752;2023-06-26T02:55:50;18.30;99.90
1546;DHT22;766;51.502;9.752;2023-06-26T02:58:19;18.40;99.90
1546;DHT22;766;51.502;9.752;2023-06-26T03:00:50;18.40;99.90
1546;DHT22;766;51.502;9.752;2023-06-26T03:03:20;18.30;99.90
1546;DHT22;766;51.502;9.752;2023-06-26T03:05:49;18.40;99.90
1546;DHT22;766;51.502;9.752;2023-06-26T03:08:17;18.00;99.90
1546;DHT22;766;51.502;9.752;2023-06-26T03:10:48;17.90;99.90
1546;DHT22;766;51.502;9.752;2023-06-26T03:13:16;18.20;99.90
1546;DHT22;766;51.502;9.752;2023-06-26T03:15:44;18.20;99.90
1546;DHT22;766;51.502;9.752;2023-06-26T03:18:16;18.10;99.90
1546;DHT22;766;51.502;9.752;2023-06-26T03:20:44;18.00;99.90
1546;DHT22;766;51.502;9.752;2023-06-26T03:23:13;18.00;99.90
1546;DHT22;766;51.502;9.752;2023-06-26T03:25:41;17.60;99.90
1546;DHT22;766;51.502;9.752;2023-06-26T03:28:12;17.70;99.90
1546;DHT22;766;51.502;9.752;2023-06-26T03:30:40;17.90;99.90
1546;DHT22;766;51.502;9.752;2023-06-26T03:33:09;17.90;99.90
1546;DHT22;766;51.502;9.752;2023-06-26T03:35:38;17.90;99.90
1546;DHT22;766;51.502;9.752;2023-06-26T03:38:08;17.90;99.90
1546;DHT22;766;51.502;9.752;2023-06-26T03:40:38;18.00;99.90
1546;DHT22;766;51.502;9.752;2023-06-26T03:43:07;17.90;99.90
1546;DHT22;766;51.502;9.752;2023-06-26T03:45:41;18.00;99.90
1546;DHT22;766;51.502;9.752;2023-06-26T03:48:10;17.90;99.90
1546;DHT22;766;51.502;9.752;2023-06-26T03:50:39;17.90;99.90
1546;DHT22;766;51.502;9.752;2023-06-26T03:53:08;17.90;99.90
1546;DHT22;766;51.502;9.752;2023-06-26T03:55:40;17.90;99.90
1546;DHT22;766;51.502;9.752;2023-06-26T03:58:10;18.00;99.90
1546;DHT22;766;51.502;9.752;2023-06-26T04:00:40;18.00;99.90
1546;DHT22;766;51.502;9.752;2023-06-26T04:03:08;17.90;99.90
1546;DHT22;766;51.502;9.752;2023-06-26T04:05:38;18.10;99.90
1546;DHT22;766;51.502;9.752;2023-06-26T04:08:07;18.20;99.90
1546;DHT22;766;51.502;9.752;2023-06-26T04:10:37;18.20;99.90
1546;DHT22;766;51.502;9.752;2023-06-26T04:13:06;18.50;99.90
1546;DHT22;766;51.502;9.752;2023-06-26T04:15:37;18.60;99.90
1546;DHT22;766;51.502;9.752;2023-06-26T04:18:08;18.40;99.90
1546;DHT22;766;51.502;9.752;2023-06-26T04:20:39;18.40;99.90
1546;DHT22;766;51.502;9.752;2023-06-26T04:23:08;18.30;99.90
1546;DHT22;766;51.502;9.752;2023-06-26T04:25:37;18.50;99.90
1546;DHT22;766;51.502;9.752;2023-06-26T04:28:10;18.50;99.90
1546;DHT22;766;51.502;9.752;2023-06-26T04:30:39;18.70;99.90
1546;DHT22;766;51.502;9.752;2023-06-26T04:33:12;18.80;99.90
1546;DHT22;766;51.502;9.752;2023-06-26T04:35:42;18.60;99.90
1546;DHT22;766;51.502;9.752;2023-06-26T04:38:11;18.80;99.90
1546;DHT22;766;51.502;9.752;2023-06-26T04:40:41;19.00;99.90
1546;DHT22;766;51.502;9.752;2023-06-26T04:43:13;19.10;99.90
1546;DHT22;766;51.502;9.752;2023-06-26T04:45:41;19.00;99.90
1546;DHT22;766;51.502;9.752;2023-06-26T04:48:11;19.10;99.90
1546;DHT22;766;51.502;9.752;2023-06-26T04:50:41;19.00;99.90
1546;DHT22;766;51.502;9.752;2023-06-26T04:53:10;19.20;99.90
1546;DHT22;766;51.502;9.752;2023-06-26T04:55:39;19.40;99.90
1546;DHT22;766;51.502;9.752;2023-06-26T04:58:08;19.60;99.90
1546;DHT22;766;51.502;9.752;2023-06-26T05:00:37;19.90;99.90
1546;DHT22;766;51.502;9.752;2023-06-26T05:03:09;20.30;99.90
1546;DHT22;766;51.502;9.752;2023-06-26T05:05:40;20.60;99.90
1546;DHT22;766;51.502;9.752;2023-06-26T05:08:16;20.70;99.90
1546;DHT22;766;51.502;9.752;2023-06-26T05:10:45;20.90;99.90
1546;DHT22;766;51.502;9.752;2023-06-26T05:13:15;21.40;99.90
1546;DHT22;766;51.502;9.752;2023-06-26T05:15:45;22.30;99.90
1546;DHT22;766;51.502;9.752;2023-06-26T05:18:14;22.70;99.90
1546;DHT22;766;51.502;9.752;2023-06-26T05:20:45;23.10;99.90
1546;DHT22;766;51.502;9.752;2023-06-26T05:23:18;23.10;99.90
1546;DHT22;766;51.502;9.752;2023-06-26T05:25:54;23.10;99.90
1546;DHT22;766;51.502;9.752;2023-06-26T05:28:23;22.90;99.90
1546;DHT22;766;51.502;9.752;2023-06-26T05:30:54;22.80;99.90
1546;DHT22;766;51.502;9.752;2023-06-26T05:33:25;23.00;99.90
1546;DHT22;766;51.502;9.752;2023-06-26T05:35:56;23.20;99.90
1546;DHT22;766;51.502;9.752;2023-06-26T05:38:27;23.80;99.90
1546;DHT22;766;51.502;9.752;2023-06-26T05:40:56;24.40;99.90
1546;DHT22;766;51.502;9.752;2023-06-26T05:43:25;25.30;99.90
1546;DHT22;766;51.502;9.752;2023-06-26T05:45:56;25.10;99.90
1546;DHT22;766;51.502;9.752;2023-06-26T05:48:25;25.20;99.90
1546;DHT22;766;51.502;9.752;2023-06-26T05:50:56;25.30;99.90
1546;DHT22;766;51.502;9.752;2023-06-26T05:53:26;25.10;99.90
1546;DHT22;766;51.502;9.752;2023-06-26T05:55:55;25.20;99.90
1546;DHT22;766;51.502;9.752;2023-06-26T05:58:26;25.40;99.90
1546;DHT22;766;51.502;9.752;2023-06-26T06:00:55;25.60;99.90
1546;DHT22;766;51.502;9.752;2023-06-26T06:03:23;25.90;99.90
1546;DHT22;766;51.502;9.752;2023-06-26T06:05:53;25.50;99.90
1546;DHT22;766;51.502;9.752;2023-06-26T06:08:23;25.00;99.90
1546;DHT22;766;51.502;9.752;2023-06-26T06:10:53;24.40;99.90
1546;DHT22;766;51.502;9.752;2023-06-26T06:13:21;24.00;99.90
1546;DHT22;766;51.502;9.752;2023-06-26T06:15:50;24.40;99.90
1546;DHT22;766;51.502;9.752;2023-06-26T06:18:19;24.30;99.90
1546;DHT22;766;51.502;9.752;2023-06-26T06:20:50;24.20;99.90
1546;DHT22;766;51.502;9.752;2023-06-26T06:23:21;24.00;99.90
1546;DHT22;766;51.502;9.752;2023-06-26T06:25:50;23.90;99.90
1546;DHT22;766;51.502;9.752;2023-06-26T06:28:20;23.50;99.90
1546;DHT22;766;51.502;9.752;2023-06-26T06:30:49;23.20;99.90
1546;DHT22;766;51.502;9.752;2023-06-26T06:33:18;23.60;99.90
1546;DHT22;766;51.502;9.752;2023-06-26T06:35:51;24.70;99.90
1546;DHT22;766;51.502;9.752;2023-06-26T06:38:24;25.80;99.90
1546;DHT22;766;51.502;9.752;2023-06-26T06:40:57;26.80;99.90
1546;DHT22;766;51.502;9.752;2023-06-26T06:43:29;27.90;99.90
1546;DHT22;766;51.502;9.752;2023-06-26T06:45:59;28.10;99.90
1546;DHT22;766;51.502;9.752;2023-06-26T06:48:28;27.90;99.90
1546;DHT22;766;51.502;9.752;2023-06-26T06:50:57;27.20;99.90
1546;DHT22;766;51.502;9.752;2023-06-26T06:53:28;26.70;99.90
1546;DHT22;766;51.502;9.752;2023-06-26T06:55:57;26.40;99.90
1546;DHT22;766;51.502;9.752;2023-06-26T06:58:26;26.30;99.90
1546;DHT22;766;51.502;9.752;2023-06-26T07:00:55;26.30;99.90
1546;DHT22;766;51.502;9.752;2023-06-26T07:03:23;25.70;99.90
1546;DHT22;766;51.502;9.752;2023-06-26T07:05:51;25.00;99.90
1546;DHT22;766;51.502;9.752;2023-06-26T07:08:20;25.20;99.90
1546;DHT22;766;51.502;9.752;2023-06-26T07:10:51;26.10;99.90
1546;DHT22;766;51.502;9.752;2023-06-26T07:13:20;27.40;99.90
1546;DHT22;766;51.502;9.752;2023-06-26T07:15:49;27.90;99.90
1546;DHT22;766;51.502;9.752;2023-06-26T07:18:18;29.10;99.90
1546;DHT22;766;51.502;9.752;2023-06-26T07:20:46;29.50;99.90
1546;DHT22;766;51.502;9.752;2023-06-26T07:23:15;29.70;99.90
1546;DHT22;766;51.502;9.752;2023-06-26T07:25:43;28.80;99.90
1546;DHT22;766;51.502;9.752;2023-06-26T07:28:13;29.00;99.90
1546;DHT22;766;51.502;9.752;2023-06-26T07:30:42;29.10;99.90
1546;DHT22;766;51.502;9.752;2023-06-26T07:33:11;29.60;99.90
1546;DHT22;766;51.502;9.752;2023-06-26T07:35:40;30.30;99.90
1546;DHT22;766;51.502;9.752;2023-06-26T07:38:08;29.90;99.90
1546;DHT22;766;51.502;9.752;2023-06-26T07:40:37;30.90;99.90
1546;DHT22;766;51.502;9.752;2023-06-26T07:43:09;30.70;99.90
1546;DHT22;766;51.502;9.752;2023-06-26T07:45:42;30.60;99.90
1546;DHT22;766;51.502;9.752;2023-06-26T07:48:19;31.00;99.90
1546;DHT22;766;51.502;9.752;2023-06-26T07:50:48;31.90;99.90
1546;DHT22;766;51.502;9.752;2023-06-26T07:53:16;31.70;99.90
1546;DHT22;766;51.502;9.752;2023-06-26T07:55:48;31.90;99.90
1546;DHT22;766;51.502;9.752;2023-06-26T07:58:18;31.30;99.90
1546;DHT22;766;51.502;9.752;2023-06-26T08:00:49;31.20;99.90
1546;DHT22;766;51.502;9.752;2023-06-26T08:03:19;31.70;99.90
1546;DHT22;766;51.502;9.752;2023-06-26T08:06:01;32.30;99.90
1546;DHT22;766;51.502;9.752;2023-06-26T08:08:32;31.80;99.90
1546;DHT22;766;51.502;9.752;2023-06-26T08:11:01;32.50;99.90
1546;DHT22;766;51.502;9.752;2023-06-26T08:13:30;32.20;99.90
1546;DHT22;766;51.502;9.752;2023-06-26T08:16:00;33.00;99.90
1546;DHT22;766;51.502;9.752;2023-06-26T08:18:29;33.60;99.90
1546;DHT22;766;51.502;9.752;2023-06-26T08:20:57;34.10;99.90
1546;DHT22;766;51.502;9.752;2023-06-26T08:23:26;33.60;99.90
1546;DHT22;766;51.502;9.752;2023-06-26T08:25:55;32.70;99.90
1546;DHT22;766;51.502;9.752;2023-06-26T08:28:26;32.50;99.90
1546;DHT22;766;51.502;9.752;2023-06-26T08:30:56;32.60;99.90
1546;DHT22;766;51.502;9.752;2023-06-26T08:33:30;32.40;99.90
1546;DHT22;766;51.502;9.752;2023-06-26T08:35:59;33.60;99.90
1546;DHT22;766;51.502;9.752;2023-06-26T08:38:29;34.70;99.90
1546;DHT22;766;51.502;9.752;2023-06-26T08:41:02;34.40;99.90
1546;DHT22;766;51.502;9.752;2023-06-26T08:43:40;34.30;99.90
1546;DHT22;766;51.502;9.752;2023-06-26T08:46:09;33.20;99.90
1546;DHT22;766;51.502;9.752;2023-06-26T08:48:48;33.50;99.90
1546;DHT22;766;51.502;9.752;2023-06-26T08:51:17;34.10;99.90
1546;DHT22;766;51.502;9.752;2023-06-26T08:53:52;33.90;99.90
1546;DHT22;766;51.502;9.752;2023-06-26T08:56:26;33.80;99.90
1546;DHT22;766;51.502;9.752;2023-06-26T08:59:00;34.50;99.90
1546;DHT22;766;51.502;9.752;2023-06-26T09:01:29;34.40;99.90
1546;DHT22;766;51.502;9.752;2023-06-26T09:04:00;34.10;99.90
1546;DHT22;766;51.502;9.752;2023-06-26T09:06:29;34.50;99.90
1546;DHT22;766;51.502;9.752;2023-06-26T09:09:04;34.60;99.90
1546;DHT22;766;51.502;9.752;2023-06-26T09:11:46;35.40;99.90
1546;DHT22;766;51.502;9.752;2023-06-26T09:14:21;36.20;99.80
1546;DHT22;766;51.502;9.752;2023-06-26T09:16:53;35.00;99.90
1546;DHT22;766;51.502;9.752;2023-06-26T09:19:24;36.00;99.90
1546;DHT22;766;51.502;9.752;2023-06-26T09:21:54;35.20;99.90
1546;DHT22;766;51.502;9.752;2023-06-26T09:24:24;35.80;99.90
1546;DHT22;766;51.502;9.752;2023-06-26T09:26:53;35.40;99.90
1546;DHT22;766;51.502;9.752;2023-06-26T09:29:22;36.10;99.90
1546;DHT22;766;51.502;9.752;2023-06-26T09:31:51;36.10;99.90
1546;DHT22;766;51.502;9.752;2023-06-26T09:34:20;33.90;99.90
1546;DHT22;766;51.502;9.752;2023-06-26T09:36:53;33.70;99.90
1546;DHT22;766;51.502;9.752;2023-06-26T09:39:25;33.00;99.90
1546;DHT22;766;51.502;9.752;2023-06-26T09:42:01;32.10;99.90
1546;DHT22;766;51.502;9.752;2023-06-26T09:44:34;31.10;99.90
1546;DHT22;766;51.502;9.752;2023-06-26T09:47:04;30.30;99.90
1546;DHT22;766;51.502;9.752;2023-06-26T09:49:32;30.80;99.90
1546;DHT22;766;51.502;9.752;2023-06-26T09:52:03;31.70;99.90
1546;DHT22;766;51.502;9.752;2023-06-26T09:54:33;32.70;99.90
1546;DHT22;766;51.502;9.752;2023-06-26T09:57:16;33.90;99.90
1546;DHT22;766;51.502;9.752;2023-06-26T09:59:46;34.00;99.90
1546;DHT22;766;51.502;9.752;2023-06-26T10:02:16;34.50;99.90
1546;DHT22;766;51.502;9.752;2023-06-26T10:04:46;33.90;99.90
1546;DHT22;766;51.502;9.752;2023-06-26T10:07:17;34.40;99.90
1546;DHT22;766;51.502;9.752;2023-06-26T10:09:48;33.40;99.90
1546;DHT22;766;51.502;9.752;2023-06-26T10:12:25;32.60;99.90
1546;DHT22;766;51.502;9.752;2023-06-26T10:14:56;32.80;99.90
1546;DHT22;766;51.502;9.752;2023-06-26T10:17:27;33.40;99.90
1546;DHT22;766;51.502;9.752;2023-06-26T10:19:58;34.40;99.90
1546;DHT22;766;51.502;9.752;2023-06-26T10:22:36;34.90;99.90
1546;DHT22;766;51.502;9.752;2023-06-26T10:25:10;35.30;99.90
1546;DHT22;766;51.502;9.752;2023-06-26T10:27:45;34.50;99.90
1546;DHT22;766;51.502;9.752;2023-06-26T10:30:20;34.00;99.90
1546;DHT22;766;51.502;9.752;2023-06-26T10:32:51;33.20;99.90
1546;DHT22;766;51.502;9.752;2023-06-26T10:35:20;34.30;99.90
1546;DHT22;766;51.502;9.752;2023-06-26T10:37:51;35.00;99.90
1546;DHT22;766;51.502;9.752;2023-06-26T10:40:25;35.00;99.90
1546;DHT22;766;51.502;9.752;2023-06-26T10:43:05;34.40;99.90
1546;DHT22;766;51.502;9.752;2023-06-26T10:45:35;34.60;99.90
1546;DHT22;766;51.502;9.752;2023-06-26T10:48:04;34.80;99.90
1546;DHT22;766;51.502;9.752;2023-06-26T10:50:33;33.80;99.90
1546;DHT22;766;51.502;9.752;2023-06-26T10:53:16;32.70;99.90
1546;DHT22;766;51.502;9.752;2023-06-26T10:55:56;31.50;99.90
1546;DHT22;766;51.502;9.752;2023-06-26T10:58:30;30.90;99.90
1546;DHT22;766;51.502;9.752;2023-06-26T11:01:19;29.70;99.90
1546;DHT22;766;51.502;9.752;2023-06-26T11:04:00;29.10;99.90
1546;DHT22;766;51.502;9.752;2023-06-26T11:06:31;28.70;99.90
1546;DHT22;766;51.502;9.752;2023-06-26T11:09:17;27.40;99.90
1546;DHT22;766;51.502;9.752;2023-06-26T11:11:59;26.70;99.90
1546;DHT22;766;51.502;9.752;2023-06-26T11:14:32;25.50;99.90
1546;DHT22;766;51.502;9.752;2023-06-26T11:17:05;25.00;99.90
1546;DHT22;766;51.502;9.752;2023-06-26T11:19:34;24.90;99.90
1546;DHT22;766;51.502;9.752;2023-06-26T11:22:03;25.10;99.90
1546;DHT22;766;51.502;9.752;2023-06-26T11:24:34;24.50;99.90
1546;DHT22;766;51.502;9.752;2023-06-26T11:27:04;24.80;99.90
1546;DHT22;766;51.502;9.752;2023-06-26T11:29:34;24.60;99.90
1546;DHT22;766;51.502;9.752;2023-06-26T11:32:04;24.40;99.90
1546;DHT22;766;51.502;9.752;2023-06-26T11:34:34;24.20;99.90
1546;DHT22;766;51.502;9.752;2023-06-26T11:37:05;25.40;99.90
1546;DHT22;766;51.502;9.752;2023-06-26T11:39:39;25.70;99.90
1546;DHT22;766;51.502;9.752;2023-06-26T11:42:08;26.20;99.90
1546;DHT22;766;51.502;9.752;2023-06-26T11:44:42;27.00;99.90
1546;DHT22;766;51.502;9.752;2023-06-26T11:47:15;26.80;99.90
1546;DHT22;766;51.502;9.752;2023-06-26T11:49:44;26.70;99.90
1546;DHT22;766;51.502;9.752;2023-06-26T11:52:14;26.70;99.90
1546;DHT22;766;51.502;9.752;2023-06-26T11:54:44;26.40;99.90
1546;DHT22;766;51.502;9.752;2023-06-26T11:57:14;26.10;99.90
1546;DHT22;766;51.502;9.752;2023-06-26T11:59:45;25.80;99.90
1546;DHT22;766;51.502;9.752;2023-06-26T12:02:14;25.80;99.90
1546;DHT22;766;51.502;9.752;2023-06-26T12:04:43;25.30;99.90
1546;DHT22;766;51.502;9.752;2023-06-26T12:07:13;25.40;99.90
1546;DHT22;766;51.502;9.752;2023-06-26T12:09:45;25.30;99.90
1546;DHT22;766;51.502;9.752;2023-06-26T12:12:16;25.80;99.90
1546;DHT22;766;51.502;9.752;2023-06-26T12:14:44;25.80;99.90
1546;DHT22;766;51.502;9.752;2023-06-26T12:17:14;25.80;99.90
1546;DHT22;766;51.502;9.752;2023-06-26T12:19:47;25.50;99.90
1546;DHT22;766;51.502;9.752;2023-06-26T12:22:17;25.50;99.90
1546;DHT22;766;51.502;9.752;2023-06-26T12:24:49;25.90;99.90
1546;DHT22;766;51.502;9.752;2023-06-26T12:27:18;26.60;99.90
1546;DHT22;766;51.502;9.752;2023-06-26T12:29:50;26.70;99.90
1546;DHT22;766;51.502;9.752;2023-06-26T12:32:22;27.20;99.90
1546;DHT22;766;51.502;9.752;2023-06-26T12:34:52;27.30;99.90
1546;DHT22;766;51.502;9.752;2023-06-26T12:37:22;27.30;99.90
1546;DHT22;766;51.502;9.752;2023-06-26T12:39:54;27.20;99.90
1546;DHT22;766;51.502;9.752;2023-06-26T12:42:24;27.10;99.90
1546;DHT22;766;51.502;9.752;2023-06-26T12:44:54;26.90;99.90
1546;DHT22;766;51.502;9.752;2023-06-26T12:47:25;26.60;99.90
1546;DHT22;766;51.502;9.752;2023-06-26T12:49:55;26.50;99.90
1546;DHT22;766;51.502;9.752;2023-06-26T12:52:24;26.70;99.90
1546;DHT22;766;51.502;9.752;2023-06-26T12:54:55;27.10;99.90
1546;DHT22;766;51.502;9.752;2023-06-26T12:57:25;27.20;99.90
1546;DHT22;766;51.502;9.752;2023-06-26T12:59:54;27.00;99.90
1546;DHT22;766;51.502;9.752;2023-06-26T13:02:23;27.30;99.90
1546;DHT22;766;51.502;9.752;2023-06-26T13:04:51;26.90;99.90
1546;DHT22;766;51.502;9.752;2023-06-26T13:07:20;26.80;99.90
1546;DHT22;766;51.502;9.752;2023-06-26T13:09:54;26.90;99.90
1546;DHT22;766;51.502;9.752;2023-06-26T13:12:23;27.20;99.90
1546;DHT22;766;51.502;9.752;2023-06-26T13:14:51;27.10;99.90
1546;DHT22;766;51.502;9.752;2023-06-26T13:17:20;27.20;99.90
1546;DHT22;766;51.502;9.752;2023-06-26T13:19:48;27.40;99.90
1546;DHT22;766;51.502;9.752;2023-06-26T13:22:17;27.30;99.90
1546;DHT22;766;51.502;9.752;2023-06-26T13:24:45;27.00;99.90
1546;DHT22;766;51.502;9.752;2023-06-26T13:27:15;26.90;99.90
1546;DHT22;766;51.502;9.752;2023-06-26T13:29:44;26.90;99.90
1546;DHT22;766;51.502;9.752;2023-06-26T13:32:12;26.90;99.90
1546;DHT22;766;51.502;9.752;2023-06-26T13:34:40;26.90;99.90
1546;DHT22;766;51.502;9.752;2023-06-26T13:37:10;27.00;99.90
1546;DHT22;766;51.502;9.752;2023-06-26T13:39:39;26.90;99.90
1546;DHT22;766;51.502;9.752;2023-06-26T13:42:08;27.00;99.90
1546;DHT22;766;51.502;9.752;2023-06-26T13:44:38;27.20;99.90
1546;DHT22;766;51.502;9.752;2023-06-26T13:47:27;26.90;99.90
1546;DHT22;766;51.502;9.752;2023-06-26T13:49:55;26.90;99.90
1546;DHT22;766;51.502;9.752;2023-06-26T13:52:25;26.50;99.90
1546;DHT22;766;51.502;9.752;2023-06-26T13:54:53;26.40;99.90
1546;DHT22;766;51.502;9.752;2023-06-26T13:57:22;26.40;99.90
1546;DHT22;766;51.502;9.752;2023-06-26T13:59:56;26.70;99.90
1546;DHT22;766;51.502;9.752;2023-06-26T14:02:24;27.00;99.90
1546;DHT22;766;51.502;9.752;2023-06-26T14:04:53;27.10;99.90
1546;DHT22;766;51.502;9.752;2023-06-26T14:07:22;27.10;99.90
1546;DHT22;766;51.502;9.752;2023-06-26T14:09:50;26.90;99.90
1546;DHT22;766;51.502;9.752;2023-06-26T14:12:18;27.10;99.90
1546;DHT22;766;51.502;9.752;2023-06-26T14:14:47;27.10;99.90
1546;DHT22;766;51.502;9.752;2023-06-26T14:17:17;27.20;99.90
1546;DHT22;766;51.502;9.752;2023-06-26T14:19:45;26.90;99.90
1546;DHT22;766;51.502;9.752;2023-06-26T14:22:14;26.60;99.90
1546;DHT22;766;51.502;9.752;2023-06-26T14:24:42;26.50;99.90
1546;DHT22;766;51.502;9.752;2023-06-26T14:27:11;26.40;99.90
1546;DHT22;766;51.502;9.752;2023-06-26T14:29:39;26.20;99.90
1546;DHT22;766;51.502;9.752;2023-06-26T14:32:07;26.00;99.90
1546;DHT22;766;51.502;9.752;2023-06-26T14:34:37;26.00;99.90
1546;DHT22;766;51.502;9.752;2023-06-26T14:37:08;26.30;99.90
1546;DHT22;766;51.502;9.752;2023-06-26T14:39:36;26.30;99.90
1546;DHT22;766;51.502;9.752;2023-06-26T14:42:06;26.10;99.90
1546;DHT22;766;51.502;9.752;2023-06-26T14:44:35;25.90;99.90
1546;DHT22;766;51.502;9.752;2023-06-26T14:47:04;25.90;99.90
1546;DHT22;766;51.502;9.752;2023-06-26T14:49:33;26.10;99.90
1546;DHT22;766;51.502;9.752;2023-06-26T14:52:05;26.10;99.90
1546;DHT22;766;51.502;9.752;2023-06-26T14:54:33;26.10;99.90
1546;DHT22;766;51.502;9.752;2023-06-26T14:57:03;26.10;99.90
1546;DHT22;766;51.502;9.752;2023-06-26T14:59:32;26.20;99.90
1546;DHT22;766;51.502;9.752;2023-06-26T15:02:00;26.20;99.90
1546;DHT22;766;51.502;9.752;2023-06-26T15:04:29;26.20;99.90
1546;DHT22;766;51.502;9.752;2023-06-26T15:06:57;26.00;99.90
1546;DHT22;766;51.502;9.752;2023-06-26T15:09:27;25.80;99.90
1546;DHT22;766;51.502;9.752;2023-06-26T15:11:56;25.70;99.90
1546;DHT22;766;51.502;9.752;2023-06-26T15:14:24;25.60;99.90
1546;DHT22;766;51.502;9.752;2023-06-26T15:16:53;25.70;99.90
1546;DHT22;766;51.502;9.752;2023-06-26T15:19:22;25.60;99.90
1546;DHT22;766;51.502;9.752;2023-06-26T15:21:50;25.50;99.90
1546;DHT22;766;51.502;9.752;2023-06-26T15:24:19;25.40;99.90
1546;DHT22;766;51.502;9.752;2023-06-26T15:26:48;25.40;99.90
1546;DHT22;766;51.502;9.752;2023-06-26T15:29:17;25.30;99.90
1546;DHT22;766;51.502;9.752;2023-06-26T15:31:46;25.30;99.90
1546;DHT22;766;51.502;9.752;2023-06-26T15:34:14;25.40;99.90
1546;DHT22;766;51.502;9.752;2023-06-26T15:36:42;25.50;99.90
1546;DHT22;766;51.502;9.752;2023-06-26T15:39:11;25.10;99.90
1546;DHT22;766;51.502;9.752;2023-06-26T15:41:39;24.80;99.90
1546;DHT22;766;51.502;9.752;2023-06-26T15:44:09;24.70;99.90
1546;DHT22;766;51.502;9.752;2023-06-26T15:46:38;24.40;99.90
1546;DHT22;766;51.502;9.752;2023-06-26T15:49:07;24.30;99.90
1546;DHT22;766;51.502;9.752;2023-06-26T15:51:35;24.20;99.90
1546;DHT22;766;51.502;9.752;2023-06-26T15:54:05;24.20;99.90
1546;DHT22;766;51.502;9.752;2023-06-26T15:56:34;24.20;99.90
1546;DHT22;766;51.502;9.752;2023-06-26T15:59:03;24.20;99.90
1546;DHT22;766;51.502;9.752;2023-06-26T16:01:32;24.30;99.90
1546;DHT22;766;51.502;9.752;2023-06-26T16:04:01;24.30;99.90
1546;DHT22;766;51.502;9.752;2023-06-26T16:06:31;24.40;99.90
1546;DHT22;766;51.502;9.752;2023-06-26T16:08:59;24.50;99.90
1546;DHT22;766;51.502;9.752;2023-06-26T16:11:28;24.20;99.90
1546;DHT22;766;51.502;9.752;2023-06-26T16:13:57;24.00;99.90
1546;DHT22;766;51.502;9.752;2023-06-26T16:16:26;24.00;99.90
1546;DHT22;766;51.502;9.752;2023-06-26T16:18:57;23.80;99.90
1546;DHT22;766;51.502;9.752;2023-06-26T16:21:25;23.60;99.90
1546;DHT22;766;51.502;9.752;2023-06-26T16:23:53;23.70;99.90
1546;DHT22;766;51.502;9.752;2023-06-26T16:26:22;23.70;99.90
1546;DHT22;766;51.502;9.752;2023-06-26T16:28:50;23.80;99.90
1546;DHT22;766;51.502;9.752;2023-06-26T16:31:19;23.90;99.90
1546;DHT22;766;51.502;9.752;2023-06-26T16:33:47;23.90;99.90
1546;DHT22;766;51.502;9.752;2023-06-26T16:36:17;23.70;99.90